Terminal Aerodrome Forecast
Issued by NWS

Home | Current Version | Previous Version | Text Only | Print | Product List | Glossary Off
Versions: 1 2 3 4 5 6 7 8 9 10 11 12 13 14 15 16

000
FTUS43 KMPX 201000 AAB
TAFRNH
TAF AMD
KRNH 201009Z 2010/2106 00000KT 2SM BR SCT025 OVC060
      TEMPO 2010/2013 1/4SM FG VV002
     FM201300 VRB02KT P6SM SCT250
     FM202200 07004KT P6SM SCT050=

USA.gov is the U.S. government's official web portal to all federal, state and local government web resources and services.